createdAt,value
2022-08-24T00:00:41.229Z,7.03
2022-08-24T00:03:11.867Z,6.60
2022-08-24T00:05:40.338Z,6.82
2022-08-24T00:08:09.564Z,5.93
2022-08-24T00:10:37.651Z,6.38
2022-08-24T00:13:05.480Z,6.25
2022-08-24T00:15:34.161Z,6.47
2022-08-24T00:18:02.111Z,5.97
2022-08-24T00:20:30.290Z,6.35
2022-08-24T00:22:58.198Z,6.05
2022-08-24T00:25:27.422Z,6.13
2022-08-24T00:27:55.280Z,6.63
2022-08-24T00:30:23.463Z,6.03
2022-08-24T00:32:51.886Z,7.82
2022-08-24T00:35:20.238Z,6.22
2022-08-24T00:37:49.682Z,5.80
2022-08-24T00:40:23.187Z,5.30
2022-08-24T00:42:53.367Z,5.97
2022-08-24T00:45:21.374Z,5.53
2022-08-24T00:47:56.006Z,5.50
2022-08-24T00:50:27.607Z,6.55
2022-08-24T00:53:02.429Z,5.17
2022-08-24T00:55:33.940Z,5.03
2022-08-24T00:58:06.278Z,5.00
2022-08-24T01:00:37.862Z,4.70
2022-08-24T01:03:07.367Z,4.90
2022-08-24T01:05:38.038Z,4.80
2022-08-24T01:08:10.337Z,4.75
2022-08-24T01:10:42.571Z,4.97
2022-08-24T01:13:13.473Z,4.80
2022-08-24T01:15:43.510Z,5.77
2022-08-24T01:18:34.614Z,5.07
2022-08-24T01:21:07.722Z,4.90
2022-08-24T01:23:40.706Z,5.15
2022-08-24T01:26:11.238Z,4.82
2022-08-24T01:28:42.243Z,5.38
2022-08-24T01:31:10.230Z,5.70
2022-08-24T01:33:38.168Z,4.90
2022-08-24T01:36:15.092Z,5.05
2022-08-24T01:38:44.377Z,4.68
2022-08-24T01:41:12.388Z,4.72
2022-08-24T01:43:41.327Z,5.38
2022-08-24T01:46:10.483Z,5.20
2022-08-24T01:48:38.363Z,4.70
2022-08-24T01:51:06.431Z,4.70
2022-08-24T01:53:34.446Z,4.75
2022-08-24T01:56:04.186Z,5.13
2022-08-24T01:58:32.011Z,5.07
2022-08-24T02:01:00.117Z,5.13
2022-08-24T02:03:30.373Z,5.05
2022-08-24T02:05:58.866Z,5.15
2022-08-24T02:08:26.891Z,5.45
2022-08-24T02:10:56.365Z,4.80
2022-08-24T02:13:28.704Z,5.13
2022-08-24T02:15:56.642Z,4.78
2022-08-24T02:18:24.686Z,4.97
2022-08-24T02:20:53.227Z,5.25
2022-08-24T02:23:21.278Z,5.10
2022-08-24T02:25:49.642Z,5.60
2022-08-24T02:28:17.506Z,5.17
2022-08-24T02:30:47.125Z,6.75
2022-08-24T02:33:15.054Z,5.33
2022-08-24T02:35:42.948Z,5.28
2022-08-24T02:38:11.008Z,5.55
2022-08-24T02:40:39.362Z,6.07
2022-08-24T02:43:07.317Z,5.47
2022-08-24T02:45:39.802Z,5.57
2022-08-24T02:48:09.363Z,5.50
2022-08-24T02:50:40.511Z,5.45
2022-08-24T02:53:08.365Z,5.30
2022-08-24T02:55:36.676Z,4.90
2022-08-24T02:58:04.514Z,5.10
2022-08-24T03:00:32.391Z,5.50
2022-08-24T03:03:01.732Z,5.33
2022-08-24T03:05:31.284Z,5.65
2022-08-24T03:07:59.150Z,5.60
2022-08-24T03:10:28.651Z,5.17
2022-08-24T03:12:58.766Z,5.47
2022-08-24T03:15:27.223Z,7.17
2022-08-24T03:17:55.144Z,5.22
2022-08-24T03:20:24.729Z,6.10
2022-08-24T03:22:54.152Z,5.50
2022-08-24T03:25:25.120Z,6.13
2022-08-24T03:27:53.714Z,5.57
2022-08-24T03:30:23.574Z,5.43
2022-08-24T03:32:51.856Z,5.50
2022-08-24T03:35:21.773Z,6.15
2022-08-24T03:37:49.739Z,5.60
2022-08-24T03:40:23.005Z,5.60
2022-08-24T03:42:53.010Z,5.40
2022-08-24T03:45:21.462Z,5.80
2022-08-24T03:47:49.644Z,5.85
2022-08-24T03:50:17.994Z,4.90
2022-08-24T03:52:45.961Z,5.63
2022-08-24T03:55:14.249Z,5.65
2022-08-24T03:57:43.425Z,5.50
2022-08-24T04:00:14.074Z,5.10
2022-08-24T04:02:41.999Z,5.90
2022-08-24T04:05:10.686Z,5.60
2022-08-24T04:07:38.706Z,6.03
2022-08-24T04:10:07.590Z,5.80
2022-08-24T04:12:35.578Z,5.88
2022-08-24T04:15:05.791Z,5.50
2022-08-24T04:17:33.621Z,5.97
2022-08-24T04:20:01.874Z,5.40
2022-08-24T04:22:32.709Z,5.50
2022-08-24T04:25:00.670Z,5.25
2022-08-24T04:27:28.527Z,8.35
2022-08-24T04:29:56.382Z,5.40
2022-08-24T04:32:25.522Z,6.13
2022-08-24T04:34:53.307Z,5.13
2022-08-24T04:37:27.995Z,6.65
2022-08-24T04:39:57.299Z,5.60
2022-08-24T04:42:25.703Z,5.30
2022-08-24T04:44:53.749Z,5.47
2022-08-24T04:47:21.581Z,7.30
2022-08-24T04:49:50.831Z,4.78
2022-08-24T04:52:18.589Z,5.18
2022-08-24T04:54:46.568Z,5.00
2022-08-24T04:57:18.222Z,5.43
2022-08-24T04:59:46.412Z,5.28
2022-08-24T05:02:14.550Z,5.60
2022-08-24T05:04:42.386Z,5.78
2022-08-24T05:07:12.279Z,5.30
2022-08-24T05:09:40.095Z,5.90
2022-08-24T05:12:08.201Z,5.50
2022-08-24T05:14:36.119Z,5.43
2022-08-24T05:17:04.054Z,5.72
2022-08-24T05:19:31.917Z,6.28
2022-08-24T05:21:59.753Z,6.38
2022-08-24T05:24:29.993Z,6.30
2022-08-24T05:27:00.205Z,5.10
2022-08-24T05:29:28.179Z,5.95
2022-08-24T05:31:56.186Z,5.63
2022-08-24T05:34:25.234Z,5.45
2022-08-24T05:36:53.226Z,7.90
2022-08-24T05:39:22.586Z,5.68
2022-08-24T05:41:51.723Z,9.75
2022-08-24T05:44:19.642Z,5.70
2022-08-24T05:46:47.753Z,5.28
2022-08-24T05:49:15.614Z,5.88
2022-08-24T05:51:43.466Z,5.70
2022-08-24T05:54:13.551Z,6.10
2022-08-24T05:56:42.180Z,5.82
2022-08-24T05:59:11.594Z,6.72
2022-08-24T06:01:44.617Z,6.63
2022-08-24T06:04:13.353Z,6.43
2022-08-24T06:06:42.105Z,6.47
2022-08-24T06:09:12.707Z,5.70
2022-08-24T06:11:42.119Z,5.93
2022-08-24T06:14:13.256Z,5.20
2022-08-24T06:16:43.871Z,5.00
2022-08-24T06:19:14.231Z,4.90
2022-08-24T06:21:42.937Z,7.70
2022-08-24T06:24:11.011Z,5.07
2022-08-24T06:26:56.410Z,6.25
2022-08-24T06:29:25.587Z,4.78
2022-08-24T06:31:56.023Z,5.53
2022-08-24T06:34:25.943Z,5.40
2022-08-24T06:36:53.929Z,6.03
2022-08-24T06:39:22.026Z,5.55
2022-08-24T06:41:49.894Z,4.83
2022-08-24T06:44:17.738Z,5.33
2022-08-24T06:46:46.966Z,6.13
2022-08-24T06:49:14.974Z,6.90
2022-08-24T06:51:44.638Z,5.60
2022-08-24T06:54:14.176Z,6.63
2022-08-24T06:56:42.647Z,7.35
2022-08-24T06:59:10.478Z,7.65
2022-08-24T07:01:38.371Z,6.75
2022-08-24T07:04:07.547Z,8.48
2022-08-24T07:06:36.850Z,6.07
2022-08-24T07:09:05.586Z,6.28
2022-08-24T07:11:34.935Z,6.30
2022-08-24T07:14:03.027Z,6.10
2022-08-24T07:16:31.310Z,6.00
2022-08-24T07:18:59.758Z,4.93
2022-08-24T07:21:29.510Z,4.97
2022-08-24T07:23:59.910Z,5.18
2022-08-24T07:26:30.283Z,4.15
2022-08-24T07:29:04.954Z,4.28
2022-08-24T07:31:35.362Z,4.55
2022-08-24T07:34:04.529Z,4.22
2022-08-24T07:36:33.921Z,6.37
2022-08-24T07:39:02.620Z,5.60
2022-08-24T07:41:43.355Z,4.63
2022-08-24T07:44:15.529Z,5.35
2022-08-24T07:46:44.142Z,4.97
2022-08-24T07:49:31.661Z,4.78
2022-08-24T07:52:02.195Z,3.22
2022-08-24T07:54:30.171Z,3.40
2022-08-24T07:57:02.171Z,4.00
2022-08-24T07:59:29.974Z,4.18
2022-08-24T08:01:58.800Z,4.63
2022-08-24T08:04:27.673Z,4.57
2022-08-24T08:09:30.559Z,3.47
2022-08-24T08:11:58.658Z,4.28
2022-08-24T08:14:26.478Z,3.95
2022-08-24T08:16:54.693Z,5.17
2022-08-24T08:19:22.539Z,3.88
2022-08-24T08:22:11.419Z,6.70
2022-08-24T08:24:42.598Z,6.05
2022-08-24T08:27:10.723Z,3.83
2022-08-24T08:29:40.529Z,4.93
2022-08-24T08:32:09.436Z,4.35
2022-08-24T08:34:37.869Z,3.33
2022-08-24T08:37:06.458Z,3.65
2022-08-24T08:39:34.724Z,5.40
2022-08-24T08:42:32.045Z,9.75
2022-08-24T08:45:31.730Z,4.95
2022-08-24T08:48:29.026Z,4.28
2022-08-24T08:51:26.183Z,3.03
2022-08-24T08:54:14.182Z,6.97
2022-08-24T08:56:54.970Z,4.17
2022-08-24T08:59:41.868Z,3.30
2022-08-24T09:02:26.833Z,3.95
2022-08-24T09:05:16.556Z,5.53
2022-08-24T09:07:56.541Z,3.77
2022-08-24T09:10:45.713Z,5.00
2022-08-24T09:13:28.206Z,3.40
2022-08-24T09:16:10.649Z,4.40
2022-08-24T09:18:54.260Z,4.30
2022-08-24T09:21:49.738Z,4.53
2022-08-24T09:25:04.097Z,3.45
2022-08-24T09:27:42.837Z,3.88
2022-08-24T09:30:13.722Z,4.00
2022-08-24T09:32:59.047Z,4.38
2022-08-24T09:35:34.614Z,3.10
2022-08-24T09:38:13.370Z,2.93
2022-08-24T09:40:59.317Z,4.72
2022-08-24T09:43:58.323Z,5.70
2022-08-24T09:46:57.769Z,3.08
2022-08-24T09:50:05.884Z,2.92
2022-08-24T09:53:18.611Z,3.03
2022-08-24T09:56:16.562Z,4.30
2022-08-24T09:58:57.539Z,4.22
2022-08-24T10:01:32.335Z,4.13
2022-08-24T10:04:15.652Z,3.55
2022-08-24T10:06:57.199Z,3.75
2022-08-24T10:10:02.923Z,3.00
2022-08-24T10:12:46.926Z,3.80
2022-08-24T10:15:21.201Z,4.50
2022-08-24T10:18:18.626Z,3.20
2022-08-24T10:21:10.221Z,3.10
2022-08-24T10:24:08.722Z,3.15
2022-08-24T10:26:46.887Z,5.95
2022-08-24T10:29:32.230Z,4.53
2022-08-24T10:32:18.941Z,3.55
2022-08-24T10:35:03.285Z,3.83
2022-08-24T10:38:14.782Z,3.15
2022-08-24T10:40:54.556Z,4.07
2022-08-24T10:43:52.609Z,3.13
2022-08-24T10:46:38.442Z,3.42
2022-08-24T10:49:49.197Z,3.40
2022-08-24T10:52:47.689Z,3.45
2022-08-24T10:55:20.332Z,4.03
2022-08-24T10:58:07.230Z,4.70
2022-08-24T11:00:35.549Z,4.25
2022-08-24T11:03:10.113Z,3.73
2022-08-24T11:05:43.486Z,5.20
2022-08-24T11:08:19.327Z,2.95
2022-08-24T11:10:47.762Z,4.07
2022-08-24T11:13:23.858Z,2.88
2022-08-24T11:15:54.163Z,2.95
2022-08-24T11:18:22.969Z,2.83
2022-08-24T11:20:53.550Z,3.03
2022-08-24T11:23:25.564Z,2.67
2022-08-24T11:26:02.506Z,2.38
2022-08-24T11:28:37.065Z,3.42
2022-08-24T11:31:05.337Z,2.78
2022-08-24T11:33:36.657Z,4.88
2022-08-24T11:36:20.869Z,2.83
2022-08-24T11:38:50.204Z,2.58
2022-08-24T11:41:24.121Z,2.70
2022-08-24T11:44:03.090Z,3.20
2022-08-24T11:46:37.328Z,2.30
2022-08-24T11:49:13.914Z,2.92
2022-08-24T11:51:50.751Z,3.43
2022-08-24T11:54:25.883Z,4.55
2022-08-24T11:57:08.382Z,3.35
2022-08-24T11:59:48.460Z,2.80
2022-08-24T12:02:24.512Z,3.45
2022-08-24T12:04:58.540Z,3.95
2022-08-24T12:07:40.921Z,3.47
2022-08-24T12:10:21.388Z,3.17
2022-08-24T12:12:55.899Z,2.70
2022-08-24T12:15:36.862Z,2.75
2022-08-24T12:18:11.079Z,3.63
2022-08-24T12:20:43.038Z,3.03
2022-08-24T12:23:22.267Z,2.97
2022-08-24T12:26:04.870Z,3.20
2022-08-24T12:28:38.485Z,3.33
2022-08-24T12:31:14.092Z,3.42
2022-08-24T12:33:48.295Z,3.92
2022-08-24T12:36:26.463Z,3.03
2022-08-24T12:39:05.626Z,3.00
2022-08-24T12:41:37.639Z,2.72
2022-08-24T12:44:12.419Z,4.50
2022-08-24T12:46:44.591Z,3.13
2022-08-24T12:49:20.250Z,3.53
2022-08-24T12:52:14.779Z,4.87
2022-08-24T12:55:08.278Z,2.85
2022-08-24T12:57:54.597Z,2.50
2022-08-24T13:00:26.037Z,2.23
2022-08-24T13:03:01.731Z,2.30
2022-08-24T13:05:41.149Z,2.83
2022-08-24T13:08:16.484Z,3.30
2022-08-24T13:10:53.780Z,2.45
2022-08-24T13:13:41.824Z,2.28
2022-08-24T13:16:10.750Z,2.95
2022-08-24T13:19:19.390Z,2.50
2022-08-24T13:21:55.138Z,3.37
2022-08-24T13:25:00.441Z,3.05
2022-08-24T13:28:13.084Z,2.90
2022-08-24T13:31:03.763Z,2.20
2022-08-24T13:33:37.611Z,2.95
2022-08-24T13:36:39.468Z,2.50
2022-08-24T13:39:16.319Z,2.30
2022-08-24T13:41:55.284Z,2.00
2022-08-24T13:44:38.954Z,2.22
2022-08-24T13:47:17.662Z,2.42
2022-08-24T13:50:02.060Z,2.05
2022-08-24T13:52:44.645Z,2.35
2022-08-24T13:55:34.235Z,2.45
2022-08-24T13:58:16.171Z,2.30
2022-08-24T14:00:49.752Z,2.80
2022-08-24T14:04:02.543Z,3.33
2022-08-24T14:06:36.020Z,2.20
2022-08-24T14:09:18.597Z,2.15
2022-08-24T14:12:13.686Z,2.75
2022-08-24T14:15:02.566Z,2.10
2022-08-24T14:17:55.923Z,2.83
2022-08-24T14:20:50.261Z,1.88
2022-08-24T14:23:32.432Z,2.42
2022-08-24T14:26:38.016Z,2.22
2022-08-24T14:29:34.215Z,2.30
2022-08-24T14:32:40.583Z,2.22
2022-08-24T14:35:36.083Z,3.43
2022-08-24T14:38:26.236Z,3.05
2022-08-24T14:41:28.231Z,2.50
2022-08-24T14:44:25.098Z,2.90
2022-08-24T14:47:03.309Z,2.97
2022-08-24T14:49:39.084Z,3.03
2022-08-24T14:52:22.261Z,3.70
2022-08-24T14:55:04.573Z,2.50
2022-08-24T14:57:51.350Z,3.35
2022-08-24T15:00:22.175Z,3.08
2022-08-24T15:03:25.820Z,2.53
2022-08-24T15:06:26.114Z,2.85
2022-08-24T15:09:06.023Z,2.83
2022-08-24T15:11:38.164Z,4.15
2022-08-24T15:14:10.319Z,2.47
2022-08-24T15:16:53.454Z,5.13
2022-08-24T15:19:36.604Z,3.65
2022-08-24T15:22:11.474Z,2.70
2022-08-24T15:24:44.556Z,2.20
2022-08-24T15:27:25.010Z,2.30
2022-08-24T15:29:56.321Z,3.28
2022-08-24T15:32:28.207Z,2.25
2022-08-24T15:34:59.683Z,1.90
2022-08-24T15:37:31.111Z,2.20
2022-08-24T15:39:59.461Z,3.07
2022-08-24T15:42:29.800Z,3.30
2022-08-24T15:45:01.933Z,2.10
2022-08-24T15:47:33.575Z,3.53
2022-08-24T15:50:06.367Z,2.53
2022-08-24T15:52:51.090Z,2.95
2022-08-24T15:55:36.161Z,3.28
2022-08-24T15:58:30.286Z,2.40
2022-08-24T16:01:37.229Z,2.90
2022-08-24T16:04:12.462Z,2.10
2022-08-24T16:06:45.360Z,2.63
2022-08-24T16:09:36.185Z,2.67
2022-08-24T16:12:07.760Z,2.60
2022-08-24T16:14:37.905Z,4.28
2022-08-24T16:17:26.186Z,2.35
2022-08-24T16:19:57.168Z,2.00
2022-08-24T16:22:33.217Z,2.08
2022-08-24T16:25:18.866Z,3.00
2022-08-24T16:28:00.505Z,2.63
2022-08-24T16:30:39.420Z,2.15
2022-08-24T16:33:08.208Z,2.83
2022-08-24T16:35:36.446Z,3.42
2022-08-24T16:38:05.855Z,2.38
2022-08-24T16:40:36.299Z,4.68
2022-08-24T16:43:04.230Z,2.72
2022-08-24T16:45:35.834Z,2.42
2022-08-24T16:48:04.840Z,2.72
2022-08-24T16:50:32.927Z,3.28
2022-08-24T16:53:00.758Z,2.50
2022-08-24T16:55:29.995Z,2.00
2022-08-24T16:57:57.937Z,1.97
2022-08-24T17:00:25.859Z,2.40
2022-08-24T17:02:54.248Z,3.28
2022-08-24T17:05:22.418Z,2.50
2022-08-24T17:07:51.680Z,3.17
2022-08-24T17:10:23.051Z,2.40
2022-08-24T17:12:52.270Z,2.80
2022-08-24T17:15:20.879Z,3.45
2022-08-24T17:17:56.219Z,2.53
2022-08-24T17:20:24.290Z,3.30
2022-08-24T17:22:52.097Z,2.60
2022-08-24T17:25:19.958Z,2.42
2022-08-24T17:27:48.535Z,2.40
2022-08-24T17:30:18.448Z,2.80
2022-08-24T17:32:47.770Z,2.30
2022-08-24T17:35:15.902Z,2.47
2022-08-24T17:37:44.370Z,2.78
2022-08-24T17:40:16.629Z,3.60
2022-08-24T17:43:01.454Z,2.65
2022-08-24T17:45:30.833Z,2.40
2022-08-24T17:47:58.724Z,2.90
2022-08-24T17:50:28.334Z,2.63
2022-08-24T17:52:58.862Z,3.10
2022-08-24T17:55:28.626Z,2.92
2022-08-24T17:57:56.456Z,2.88
2022-08-24T18:00:24.664Z,2.80
2022-08-24T18:02:53.806Z,3.20
2022-08-24T18:05:22.069Z,3.83
2022-08-24T18:07:54.001Z,3.15
2022-08-24T18:10:24.699Z,2.50
2022-08-24T18:12:53.068Z,4.00
2022-08-24T18:15:21.096Z,2.67
2022-08-24T18:17:51.762Z,3.60
2022-08-24T18:20:26.995Z,3.00
2022-08-24T18:22:55.122Z,3.38
2022-08-24T18:25:23.942Z,3.53
2022-08-24T18:27:54.271Z,4.43
2022-08-24T18:30:28.758Z,3.42
2022-08-24T18:32:57.222Z,5.30
2022-08-24T18:35:26.441Z,6.25
2022-08-24T18:37:54.232Z,4.45
2022-08-24T18:40:22.159Z,3.42
2022-08-24T18:42:51.530Z,3.30
2022-08-24T18:45:19.538Z,3.75
2022-08-24T18:47:53.147Z,3.58
2022-08-24T18:50:21.990Z,3.55
2022-08-24T18:52:51.443Z,4.78
2022-08-24T18:55:19.400Z,6.38
2022-08-24T18:57:47.331Z,5.45
2022-08-24T19:00:16.110Z,6.87
2022-08-24T19:02:44.951Z,4.80
2022-08-24T19:05:16.249Z,5.10
2022-08-24T19:07:46.307Z,5.68
2022-08-24T19:10:18.832Z,9.13
2022-08-24T19:12:49.247Z,6.50
2022-08-24T19:15:32.227Z,6.30
2022-08-24T19:18:06.616Z,5.90
2022-08-24T19:20:35.332Z,6.53
2022-08-24T19:23:08.968Z,5.88
2022-08-24T19:25:40.455Z,6.53
2022-08-24T19:28:08.690Z,6.10
2022-08-24T19:30:37.956Z,7.23
2022-08-24T19:33:10.492Z,4.65
2022-08-24T19:35:41.247Z,4.25
2022-08-24T19:38:09.537Z,3.20
2022-08-24T19:40:39.301Z,4.97
2022-08-24T19:43:15.902Z,3.97
2022-08-24T19:46:01.655Z,3.85
2022-08-24T19:48:30.137Z,3.30
2022-08-24T19:50:59.798Z,2.85
2022-08-24T19:53:29.679Z,4.10
2022-08-24T19:55:59.457Z,4.07
2022-08-24T19:58:31.291Z,3.50
2022-08-24T20:01:05.532Z,3.25
2022-08-24T20:03:33.533Z,2.97
2022-08-24T20:06:01.400Z,3.35
2022-08-24T20:08:29.254Z,3.15
2022-08-24T20:11:00.323Z,3.10
2022-08-24T20:13:28.279Z,3.80
2022-08-24T20:15:57.214Z,3.78
2022-08-24T20:18:30.576Z,3.35
2022-08-24T20:20:58.871Z,3.20
2022-08-24T20:23:27.464Z,3.50
2022-08-24T20:25:56.435Z,5.10
2022-08-24T20:28:30.600Z,2.97
2022-08-24T20:31:00.723Z,3.53
2022-08-24T20:33:28.638Z,3.42
2022-08-24T20:35:57.191Z,3.33
2022-08-24T20:38:25.246Z,4.03
2022-08-24T20:40:57.142Z,3.30
2022-08-24T20:43:26.312Z,3.28
2022-08-24T20:45:54.618Z,4.18
2022-08-24T20:48:27.100Z,3.50
2022-08-24T20:50:55.312Z,3.63
2022-08-24T20:53:23.217Z,3.03
2022-08-24T20:55:51.059Z,3.13
2022-08-24T20:58:21.464Z,3.15
2022-08-24T21:00:51.284Z,3.50
2022-08-24T21:03:19.824Z,4.10
2022-08-24T21:05:51.145Z,3.80
2022-08-24T21:08:19.337Z,3.75
2022-08-24T21:10:47.151Z,3.53
2022-08-24T21:13:14.984Z,3.40
2022-08-24T21:15:43.030Z,4.67
2022-08-24T21:18:12.484Z,3.63
2022-08-24T21:20:44.689Z,3.78
2022-08-24T21:23:28.579Z,3.90
2022-08-24T21:25:56.474Z,3.40
2022-08-24T21:28:24.621Z,4.75
2022-08-24T21:30:52.459Z,3.63
2022-08-24T21:33:39.458Z,3.42
2022-08-24T21:36:08.518Z,5.07
2022-08-24T21:38:37.035Z,3.88
2022-08-24T21:41:07.087Z,4.78
2022-08-24T21:43:34.871Z,4.20
2022-08-24T21:46:02.707Z,3.40
2022-08-24T21:48:31.869Z,3.67
2022-08-24T21:50:59.663Z,4.05
2022-08-24T21:53:28.657Z,4.27
2022-08-24T21:55:57.203Z,3.80
2022-08-24T21:58:26.142Z,3.65
2022-08-24T22:00:54.283Z,3.88
2022-08-24T22:03:32.715Z,3.80
2022-08-24T22:06:09.567Z,4.07
2022-08-24T22:08:38.187Z,5.57
2022-08-24T22:11:06.339Z,4.07
2022-08-24T22:13:34.692Z,4.05
2022-08-24T22:16:03.038Z,4.35
2022-08-24T22:18:30.996Z,4.80
2022-08-24T22:20:59.193Z,4.40
2022-08-24T22:23:28.846Z,4.80
2022-08-24T22:25:56.649Z,4.32
2022-08-24T22:28:24.559Z,5.05
2022-08-24T22:30:52.515Z,5.18
2022-08-24T22:33:20.374Z,4.88
2022-08-24T22:35:50.207Z,4.97
2022-08-24T22:38:18.444Z,5.13
2022-08-24T22:40:47.893Z,5.30
2022-08-24T22:43:15.729Z,5.55
2022-08-24T22:45:43.560Z,5.15
2022-08-24T22:48:11.407Z,5.40
2022-08-24T22:50:43.069Z,5.10
2022-08-24T22:53:10.962Z,4.75
2022-08-24T22:55:38.777Z,4.90
2022-08-24T22:58:07.927Z,5.47
2022-08-24T23:00:35.937Z,7.28
2022-08-24T23:03:03.953Z,5.10
2022-08-24T23:05:31.882Z,5.53
2022-08-24T23:07:59.858Z,5.38
2022-08-24T23:10:27.652Z,5.15
2022-08-24T23:12:55.472Z,5.35
2022-08-24T23:15:24.839Z,5.65
2022-08-24T23:17:54.306Z,5.97
2022-08-24T23:20:21.170Z,5.95
2022-08-24T23:22:49.883Z,5.60
2022-08-24T23:25:17.694Z,5.20
2022-08-24T23:27:48.055Z,5.65
2022-08-24T23:30:18.032Z,5.70
2022-08-24T23:32:47.502Z,5.85
2022-08-24T23:35:15.277Z,5.85
2022-08-24T23:37:43.134Z,5.88
2022-08-24T23:40:12.124Z,5.93
2022-08-24T23:42:39.982Z,6.53
2022-08-24T23:45:11.873Z,6.70
2022-08-24T23:47:41.309Z,6.30
2022-08-24T23:50:11.626Z,6.10
2022-08-24T23:52:40.267Z,6.55
2022-08-24T23:55:21.370Z,6.57
2022-08-24T23:57:50.767Z,7.13
